createdAt,value
2018-08-04T00:01:57.978Z,101119.73
2018-08-04T00:04:26.388Z,101121.50
2018-08-04T00:06:54.793Z,101112.08
2018-08-04T00:09:23.173Z,101120.25
2018-08-04T00:11:51.750Z,101122.59
2018-08-04T00:14:20.172Z,101122.00
2018-08-04T00:16:48.602Z,101131.35
2018-08-04T00:19:17.044Z,101129.49
2018-08-04T00:21:45.432Z,101129.65
2018-08-04T00:24:13.916Z,101130.58
2018-08-04T00:26:42.887Z,101127.56
2018-08-04T00:29:11.291Z,101127.64
2018-08-04T00:31:39.682Z,101126.14
2018-08-04T00:34:08.105Z,101125.69
2018-08-04T00:36:36.599Z,101122.98
2018-08-04T00:39:07.011Z,101122.05
2018-08-04T00:41:35.510Z,101110.86
2018-08-04T00:44:04.011Z,101118.96
2018-08-04T00:46:32.400Z,101116.88
2018-08-04T00:49:00.846Z,101124.76
2018-08-04T00:51:29.252Z,101118.96
2018-08-04T00:53:57.915Z,101123.60
2018-08-04T00:56:26.328Z,101133.22
2018-08-04T00:58:54.747Z,101129.20
2018-08-04T01:01:23.169Z,101134.22
2018-08-04T01:03:51.615Z,101129.09
2018-08-04T01:06:20.001Z,101134.09
2018-08-04T01:08:48.420Z,101135.22
2018-08-04T01:11:16.832Z,101127.92
2018-08-04T01:13:45.299Z,101135.48
2018-08-04T01:16:13.660Z,101132.40
2018-08-04T01:18:42.099Z,101139.42
2018-08-04T01:21:10.961Z,101131.09
2018-08-04T01:23:39.351Z,101131.09
2018-08-04T01:26:07.778Z,101137.17
2018-08-04T01:28:36.244Z,101135.47
2018-08-04T01:31:04.689Z,101132.23
2018-08-04T01:33:33.147Z,101130.61
2018-08-04T01:36:01.523Z,101125.67
2018-08-04T01:38:29.923Z,101129.95
2018-08-04T01:40:58.371Z,101128.37
2018-08-04T01:43:26.764Z,101134.01
2018-08-04T01:45:55.221Z,101135.01
2018-08-04T01:48:23.660Z,101129.37
2018-08-04T01:50:52.075Z,101127.59
2018-08-04T01:53:20.512Z,101134.55
2018-08-04T01:55:48.992Z,101133.53
2018-08-04T01:58:17.416Z,101133.72
2018-08-04T02:00:45.900Z,101132.48
2018-08-04T02:03:15.480Z,101129.05
2018-08-04T02:05:43.906Z,101133.17
2018-08-04T02:08:12.363Z,101139.38
2018-08-04T02:10:40.761Z,101143.96
2018-08-04T02:13:09.272Z,101148.42
2018-08-04T02:15:37.713Z,101132.97
2018-08-04T02:18:06.126Z,101127.27
2018-08-04T02:20:34.541Z,101115.11
2018-08-04T02:23:02.940Z,101105.22
2018-08-04T02:25:31.351Z,101111.70
2018-08-04T02:27:59.874Z,101118.66
2018-08-04T02:30:28.257Z,101124.11
2018-08-04T02:32:56.695Z,101121.31
2018-08-04T02:35:25.102Z,101104.59
2018-08-04T02:37:53.533Z,101112.14
2018-08-04T02:40:21.973Z,101110.50
2018-08-04T02:42:50.385Z,101101.12
2018-08-04T02:45:18.767Z,101106.08
2018-08-04T02:47:47.209Z,101096.12
2018-08-04T02:50:15.584Z,101091.27
2018-08-04T02:52:44.001Z,101102.43
2018-08-04T02:55:12.362Z,101108.19
2018-08-04T02:57:40.794Z,101112.64
2018-08-04T03:00:09.209Z,101105.50
2018-08-04T03:02:37.632Z,101108.83
2018-08-04T03:05:06.925Z,101104.90
2018-08-04T03:07:35.353Z,101102.18
2018-08-04T03:10:03.877Z,101100.34
2018-08-04T03:12:32.321Z,101095.63
2018-08-04T03:15:00.696Z,101095.95
2018-08-04T03:17:29.107Z,101093.79
2018-08-04T03:19:57.488Z,101097.19
2018-08-04T03:22:25.897Z,101096.94
2018-08-04T03:24:54.336Z,101090.17
2018-08-04T03:27:22.704Z,101088.73
2018-08-04T03:29:51.099Z,101090.97
2018-08-04T03:32:19.523Z,101087.23
2018-08-04T03:34:47.908Z,101089.17
2018-08-04T03:37:16.310Z,101089.17
2018-08-04T03:39:44.690Z,101095.79
2018-08-04T03:42:13.111Z,101095.95
2018-08-04T03:44:41.496Z,101097.00
2018-08-04T03:47:09.916Z,101101.29
2018-08-04T03:49:38.312Z,101103.45
2018-08-04T03:52:06.723Z,101105.45
2018-08-04T03:54:35.152Z,101103.22
2018-08-04T03:57:03.627Z,101109.58
2018-08-04T03:59:32.072Z,101113.44
2018-08-04T04:02:00.402Z,101115.27
2018-08-04T04:04:28.860Z,101117.86
2018-08-04T04:06:57.292Z,101112.58
2018-08-04T04:09:25.731Z,101112.31
2018-08-04T04:11:54.167Z,101103.88
2018-08-04T04:14:22.530Z,101112.30
2018-08-04T04:16:50.942Z,101115.77
2018-08-04T04:19:19.304Z,101120.30
2018-08-04T04:21:47.719Z,101120.50
2018-08-04T04:24:16.076Z,101123.63
2018-08-04T04:26:44.442Z,101116.36
2018-08-04T04:29:12.827Z,101113.89
2018-08-04T04:31:41.407Z,101115.77
2018-08-04T04:34:09.839Z,101113.41
2018-08-04T04:36:38.253Z,101113.75
2018-08-04T04:39:09.304Z,101115.91
2018-08-04T04:41:37.799Z,101124.61
2018-08-04T04:44:06.296Z,101118.66
2018-08-04T04:46:39.947Z,101123.22
2018-08-04T04:49:10.382Z,101123.09
2018-08-04T04:51:39.268Z,101126.00
2018-08-04T04:54:07.705Z,101124.08
2018-08-04T04:56:36.119Z,101123.29
2018-08-04T04:59:04.848Z,101122.26
2018-08-04T05:01:33.236Z,101121.81
2018-08-04T05:04:01.768Z,101131.09
2018-08-04T05:06:30.339Z,101132.98
2018-08-04T05:08:58.895Z,101131.73
2018-08-04T05:11:27.440Z,101134.34
2018-08-04T05:13:56.068Z,101134.63
2018-08-04T05:16:24.412Z,101135.80
2018-08-04T05:18:52.815Z,101138.79
2018-08-04T05:21:21.286Z,101144.50
2018-08-04T05:23:49.642Z,101146.53
2018-08-04T05:26:18.049Z,101137.78
2018-08-04T05:28:46.476Z,101148.67
2018-08-04T05:31:14.860Z,101151.02
2018-08-04T05:33:43.232Z,101153.66
2018-08-04T05:36:11.625Z,101160.72
2018-08-04T05:38:40.037Z,101161.58
2018-08-04T05:41:08.502Z,101161.36
2018-08-04T05:43:36.968Z,101158.95
2018-08-04T05:46:05.337Z,101151.44
2018-08-04T05:48:33.755Z,101148.09
2018-08-04T05:51:02.168Z,101149.21
2018-08-04T05:53:30.598Z,101151.63
2018-08-04T05:55:58.983Z,101159.41
2018-08-04T05:58:27.383Z,101161.17
2018-08-04T06:00:55.790Z,101158.38
2018-08-04T06:03:24.253Z,101155.82
2018-08-04T06:05:52.627Z,101159.35
2018-08-04T06:08:21.000Z,101163.98
2018-08-04T06:10:49.420Z,101167.39
2018-08-04T06:13:17.823Z,101165.16
2018-08-04T06:15:46.217Z,101165.16
2018-08-04T06:18:14.628Z,101161.48
2018-08-04T06:20:43.100Z,101163.67
2018-08-04T06:23:11.492Z,101174.72
2018-08-04T06:25:39.864Z,101179.89
2018-08-04T06:28:08.257Z,101181.72
2018-08-04T06:30:36.754Z,101184.09
2018-08-04T06:33:05.060Z,101188.63
2018-08-04T06:35:33.463Z,101181.47
2018-08-04T06:38:01.853Z,101189.19
2018-08-04T06:40:30.348Z,101188.07
2018-08-04T06:42:58.737Z,101193.31
2018-08-04T06:45:27.127Z,101197.45
2018-08-04T06:47:55.544Z,101197.63
2018-08-04T06:50:24.015Z,101188.35
2018-08-04T06:52:52.593Z,101186.65
2018-08-04T06:55:20.873Z,101184.34
2018-08-04T06:57:49.270Z,101189.78
2018-08-04T07:00:17.716Z,101188.47
2018-08-04T07:02:46.123Z,101189.53
2018-08-04T07:05:14.512Z,101192.09
2018-08-04T07:07:43.009Z,101189.59
2018-08-04T07:10:11.421Z,101195.34
2018-08-04T07:12:39.885Z,101192.16
2018-08-04T07:15:08.368Z,101189.26
2018-08-04T07:17:36.756Z,101189.52
2018-08-04T07:20:05.439Z,101200.66
2018-08-04T07:22:33.909Z,101196.61
2018-08-04T07:25:02.316Z,101197.30
2018-08-04T07:27:30.704Z,101203.72
2018-08-04T07:29:59.154Z,101204.52
2018-08-04T07:32:27.565Z,101204.48
2018-08-04T07:34:55.969Z,101197.80
2018-08-04T07:37:24.362Z,101199.74
2018-08-04T07:39:53.100Z,101195.75
2018-08-04T07:42:21.532Z,101199.09
2018-08-04T07:44:50.519Z,101195.48
2018-08-04T07:47:19.600Z,101195.72
2018-08-04T07:49:47.970Z,101202.14
2018-08-04T07:52:16.377Z,101203.31
2018-08-04T07:54:45.688Z,101207.51
2018-08-04T07:57:14.101Z,101209.08
2018-08-04T07:59:42.479Z,101213.41
2018-08-04T08:02:10.941Z,101212.84
2018-08-04T08:04:39.395Z,101218.61
2018-08-04T08:07:07.983Z,101211.92
2018-08-04T08:09:36.412Z,101220.84
2018-08-04T08:12:04.949Z,101210.67
2018-08-04T08:14:33.373Z,101215.13
2018-08-04T08:17:01.768Z,101215.06
2018-08-04T08:19:30.261Z,101213.98
2018-08-04T08:21:58.709Z,101211.94
2018-08-04T08:24:27.120Z,101219.44
2018-08-04T08:26:55.808Z,101216.11
2018-08-04T08:29:24.577Z,101221.61
2018-08-04T08:31:53.012Z,101223.63
2018-08-04T08:34:21.412Z,101224.63
2018-08-04T08:36:54.320Z,101214.34
2018-08-04T08:39:25.085Z,101223.22
2018-08-04T08:41:53.531Z,101222.27
2018-08-04T08:44:22.826Z,101225.14
2018-08-04T08:46:52.099Z,101221.13
2018-08-04T08:49:20.529Z,101220.56
2018-08-04T08:51:48.921Z,101224.50
2018-08-04T08:54:17.398Z,101220.27
2018-08-04T08:56:45.828Z,101225.77
2018-08-04T08:59:14.197Z,101223.64
2018-08-04T09:01:42.669Z,101221.36
2018-08-04T09:04:11.064Z,101226.91
2018-08-04T09:06:39.505Z,101225.22
2018-08-04T09:09:09.786Z,101217.09
2018-08-04T09:11:38.379Z,101217.58
2018-08-04T09:14:07.281Z,101227.55
2018-08-04T09:16:36.072Z,101225.52
2018-08-04T09:19:04.660Z,101222.96
2018-08-04T09:21:33.050Z,101224.90
2018-08-04T09:24:02.104Z,101226.45
2018-08-04T09:26:31.487Z,101230.28
2018-08-04T09:28:59.908Z,101234.38
2018-08-04T09:31:29.087Z,101230.44
2018-08-04T09:33:57.490Z,101227.19
2018-08-04T09:36:25.856Z,101223.02
2018-08-04T09:38:54.347Z,101229.39
2018-08-04T09:41:22.892Z,101223.56
2018-08-04T09:43:51.501Z,101228.35
2018-08-04T09:46:19.963Z,101226.35
2018-08-04T09:48:48.666Z,101231.42
2018-08-04T09:51:17.058Z,101220.45
2018-08-04T09:53:45.461Z,101230.41
2018-08-04T09:56:13.905Z,101223.15
2018-08-04T09:58:42.332Z,101226.70
2018-08-04T10:01:15.918Z,101231.50
2018-08-04T10:03:44.942Z,101231.11
2018-08-04T10:06:13.349Z,101228.88
2018-08-04T10:08:41.803Z,101236.48
2018-08-04T10:11:10.256Z,101230.80
2018-08-04T10:13:38.663Z,101241.93
2018-08-04T10:16:07.066Z,101239.73
2018-08-04T10:18:35.755Z,101238.02
2018-08-04T10:21:04.209Z,101240.34
2018-08-04T10:23:32.624Z,101245.98
2018-08-04T10:26:01.064Z,101244.00
2018-08-04T10:28:29.464Z,101240.89
2018-08-04T10:30:57.980Z,101235.64
2018-08-04T10:33:26.397Z,101244.55
2018-08-04T10:35:54.844Z,101242.62
2018-08-04T10:38:23.249Z,101234.48
2018-08-04T10:40:51.705Z,101239.36
2018-08-04T10:43:20.079Z,101235.40
2018-08-04T10:45:48.922Z,101234.24
2018-08-04T10:48:17.354Z,101230.62
2018-08-04T10:50:46.405Z,101233.17
2018-08-04T10:53:14.826Z,101245.00
2018-08-04T10:55:43.253Z,101235.48
2018-08-04T10:58:11.711Z,101245.33
2018-08-04T11:00:40.133Z,101239.23
2018-08-04T11:03:08.639Z,101241.56
2018-08-04T11:05:37.116Z,101245.58
2018-08-04T11:08:05.592Z,101238.62
2018-08-04T11:10:34.071Z,101234.13
2018-08-04T11:13:02.503Z,101234.84
2018-08-04T11:15:30.931Z,101230.42
2018-08-04T11:17:59.305Z,101217.05
2018-08-04T11:20:27.790Z,101220.11
2018-08-04T11:22:56.219Z,101215.08
2018-08-04T11:25:24.651Z,101216.17
2018-08-04T11:27:53.128Z,101211.69
2018-08-04T11:30:21.545Z,101208.67
2018-08-04T11:32:49.916Z,101208.47
2018-08-04T11:35:18.409Z,101202.58
2018-08-04T11:37:46.873Z,101200.27
2018-08-04T11:40:15.237Z,101201.34
2018-08-04T11:42:43.691Z,101198.06
2018-08-04T11:45:12.134Z,101197.88
2018-08-04T11:47:40.577Z,101191.47
2018-08-04T11:50:09.030Z,101196.73
2018-08-04T11:52:37.482Z,101193.91
2018-08-04T11:55:05.973Z,101186.30
2018-08-04T11:57:34.712Z,101189.61
2018-08-04T12:00:03.152Z,101189.25
2018-08-04T12:02:31.624Z,101191.03
2018-08-04T12:05:00.056Z,101185.39
2018-08-04T12:07:29.128Z,101181.56
2018-08-04T12:09:57.528Z,101179.14
2018-08-04T12:12:26.029Z,101182.13
2018-08-04T12:14:54.440Z,101176.77
2018-08-04T12:17:22.861Z,101188.45
2018-08-04T12:19:51.254Z,101182.37
2018-08-04T12:22:19.735Z,101169.71
2018-08-04T12:24:48.177Z,101171.25
2018-08-04T12:27:16.609Z,101166.39
2018-08-04T12:29:44.963Z,101173.02
2018-08-04T12:32:13.411Z,101168.66
2018-08-04T12:34:41.802Z,101168.53
2018-08-04T12:37:10.271Z,101161.20
2018-08-04T12:39:38.913Z,101160.84
2018-08-04T12:42:07.390Z,101158.80
2018-08-04T12:44:35.870Z,101154.59
2018-08-04T12:47:04.294Z,101150.00
2018-08-04T12:49:32.791Z,101153.77
2018-08-04T12:52:01.280Z,101149.63
2018-08-04T12:54:29.679Z,101142.36
2018-08-04T12:56:58.095Z,101143.09
2018-08-04T12:59:26.562Z,101138.56
2018-08-04T13:01:54.953Z,101137.63
2018-08-04T13:04:23.391Z,101134.31
2018-08-04T13:06:51.784Z,101139.73
2018-08-04T13:09:20.173Z,101138.08
2018-08-04T13:11:48.636Z,101141.86
2018-08-04T13:14:17.071Z,101139.37
2018-08-04T13:16:45.509Z,101128.52
2018-08-04T13:19:13.941Z,101138.77
2018-08-04T13:21:42.326Z,101125.41
2018-08-04T13:24:10.769Z,101124.16
2018-08-04T13:26:39.212Z,101141.41
2018-08-04T13:29:07.764Z,101129.59
2018-08-04T13:31:36.212Z,101133.95
2018-08-04T13:34:04.663Z,101125.90
2018-08-04T13:36:33.077Z,101123.73
2018-08-04T13:39:01.902Z,101124.17
2018-08-04T13:41:30.316Z,101129.39
2018-08-04T13:43:58.702Z,101131.39
2018-08-04T13:46:27.745Z,101127.66
2018-08-04T13:48:56.155Z,101123.55
2018-08-04T13:51:24.595Z,101121.85
2018-08-04T13:53:53.064Z,101125.59
2018-08-04T13:56:21.490Z,101120.89
2018-08-04T13:58:49.956Z,101122.58
2018-08-04T14:01:18.374Z,101119.71
2018-08-04T14:03:46.822Z,101108.22
2018-08-04T14:06:15.917Z,101118.78
2018-08-04T14:08:44.358Z,101120.16
2018-08-04T14:11:12.847Z,101111.78
2018-08-04T14:13:41.275Z,101117.84
2018-08-04T14:16:09.752Z,101117.42
2018-08-04T14:18:38.187Z,101115.56
2018-08-04T14:21:06.756Z,101113.80
2018-08-04T14:23:35.170Z,101117.97
2018-08-04T14:26:03.609Z,101114.64
2018-08-04T14:28:32.152Z,101115.00
2018-08-04T14:31:00.470Z,101114.77
2018-08-04T14:33:28.895Z,101102.73
2018-08-04T14:35:57.335Z,101109.89
2018-08-04T14:38:25.696Z,101107.03
2018-08-04T14:40:54.812Z,101102.63
2018-08-04T14:43:23.306Z,101102.48
2018-08-04T14:45:51.791Z,101104.09
2018-08-04T14:48:20.143Z,101107.16
2018-08-04T14:50:48.589Z,101103.19
2018-08-04T14:53:17.000Z,101107.39
2018-08-04T14:55:45.475Z,101104.09
2018-08-04T14:58:13.957Z,101103.50
2018-08-04T15:00:42.412Z,101100.86
2018-08-04T15:03:10.756Z,101100.48
2018-08-04T15:05:39.745Z,101096.94
2018-08-04T15:08:08.168Z,101100.25
2018-08-04T15:10:36.644Z,101095.78
2018-08-04T15:13:05.152Z,101090.50
2018-08-04T15:15:33.577Z,101096.52
2018-08-04T15:18:03.023Z,101090.03
2018-08-04T15:20:31.430Z,101096.74
2018-08-04T15:22:59.996Z,101091.94
2018-08-04T15:25:28.385Z,101095.42
2018-08-04T15:27:56.929Z,101096.64
2018-08-04T15:30:25.337Z,101095.19
2018-08-04T15:32:53.827Z,101100.97
2018-08-04T15:35:22.473Z,101093.14
2018-08-04T15:37:51.223Z,101099.77
2018-08-04T15:40:19.784Z,101099.06
2018-08-04T15:42:48.314Z,101104.05
2018-08-04T15:45:16.725Z,101096.62
2018-08-04T15:47:45.216Z,101096.03
2018-08-04T15:50:13.646Z,101092.30
2018-08-04T15:52:43.383Z,101096.83
2018-08-04T15:55:11.801Z,101101.48
2018-08-04T15:57:40.200Z,101091.80
2018-08-04T16:00:09.788Z,101090.30
2018-08-04T16:02:38.193Z,101096.87
2018-08-04T16:05:06.751Z,101088.92
2018-08-04T16:07:35.140Z,101092.69
2018-08-04T16:10:03.721Z,101099.79
2018-08-04T16:12:32.274Z,101097.84
2018-08-04T16:15:00.885Z,101095.06
2018-08-04T16:17:29.301Z,101097.02
2018-08-04T16:19:57.737Z,101097.30
2018-08-04T16:22:26.200Z,101086.58
2018-08-04T16:24:54.672Z,101115.69
2018-08-04T16:27:24.351Z,101114.96
2018-08-04T16:29:53.681Z,101111.63
2018-08-04T16:32:22.039Z,101108.78
2018-08-04T16:34:50.438Z,101109.09
2018-08-04T16:37:19.021Z,101116.45
2018-08-04T16:39:47.450Z,101110.69
2018-08-04T16:42:15.863Z,101113.07
2018-08-04T16:44:44.332Z,101116.42
2018-08-04T16:47:12.760Z,101117.04
2018-08-04T16:49:41.180Z,101116.78
2018-08-04T16:52:10.256Z,101113.28
2018-08-04T16:54:38.645Z,101118.61
2018-08-04T16:57:07.884Z,101121.90
2018-08-04T16:59:36.412Z,101114.15
2018-08-04T17:02:04.767Z,101115.02
2018-08-04T17:04:33.159Z,101120.36
2018-08-04T17:07:01.630Z,101121.63
2018-08-04T17:09:30.240Z,101123.56
2018-08-04T17:11:58.676Z,101118.48
2018-08-04T17:14:27.156Z,101126.84
2018-08-04T17:16:55.691Z,101127.44
2018-08-04T17:19:24.102Z,101124.80
2018-08-04T17:21:52.595Z,101126.91
2018-08-04T17:24:20.988Z,101125.58
2018-08-04T17:26:50.149Z,101127.48
2018-08-04T17:29:18.576Z,101136.91
2018-08-04T17:31:47.049Z,101137.31
2018-08-04T17:34:16.012Z,101143.00
2018-08-04T17:36:44.382Z,101136.05
2018-08-04T17:39:13.146Z,101144.91
2018-08-04T17:41:41.556Z,101142.67
2018-08-04T17:44:10.005Z,101144.34
2018-08-04T17:46:38.522Z,101149.53
2018-08-04T17:49:06.911Z,101148.52
2018-08-04T17:51:35.369Z,101154.42
2018-08-04T17:54:03.772Z,101160.74
2018-08-04T17:56:32.180Z,101157.73
2018-08-04T17:59:00.661Z,101164.81
2018-08-04T18:01:29.026Z,101164.91
2018-08-04T18:03:57.505Z,101160.94
2018-08-04T18:06:25.906Z,101166.88
2018-08-04T18:08:54.459Z,101169.62
2018-08-04T18:11:22.924Z,101174.30
2018-08-04T18:13:51.364Z,101175.34
2018-08-04T18:16:19.755Z,101176.41
2018-08-04T18:18:48.302Z,101181.00
2018-08-04T18:21:16.900Z,101171.48
2018-08-04T18:23:45.331Z,101173.92
2018-08-04T18:26:13.825Z,101178.83
2018-08-04T18:28:43.216Z,101180.12
2018-08-04T18:31:11.632Z,101183.19
2018-08-04T18:33:40.063Z,101192.67
2018-08-04T18:36:09.045Z,101193.66
2018-08-04T18:38:37.475Z,101195.32
2018-08-04T18:41:05.861Z,101201.59
2018-08-04T18:43:34.379Z,101205.91
2018-08-04T18:46:02.844Z,101205.47
2018-08-04T18:48:31.293Z,101211.27
2018-08-04T18:50:59.690Z,101215.31
2018-08-04T18:53:28.107Z,101218.03
2018-08-04T18:55:57.200Z,101221.02
2018-08-04T18:58:25.616Z,101221.52
2018-08-04T19:00:54.067Z,101227.63
2018-08-04T19:03:22.619Z,101228.81
2018-08-04T19:05:51.038Z,101228.87
2018-08-04T19:08:19.509Z,101234.20
2018-08-04T19:10:47.941Z,101231.95
2018-08-04T19:13:17.360Z,101238.48
2018-08-04T19:15:45.843Z,101243.37
2018-08-04T19:18:14.239Z,101244.00
2018-08-04T19:20:42.726Z,101210.37
2018-08-04T19:23:11.136Z,101254.06
2018-08-04T19:25:39.628Z,101257.17
2018-08-04T19:28:08.141Z,101258.80
2018-08-04T19:30:36.511Z,101269.23
2018-08-04T19:33:05.017Z,101267.02
2018-08-04T19:35:33.471Z,101272.44
2018-08-04T19:38:01.861Z,101274.84
2018-08-04T19:40:30.272Z,101277.81
2018-08-04T19:42:59.236Z,101281.98
2018-08-04T19:45:27.672Z,101282.05
2018-08-04T19:47:56.099Z,101291.41
2018-08-04T19:50:24.557Z,101297.90
2018-08-04T19:52:52.988Z,101297.87
2018-08-04T19:55:21.417Z,101302.04
2018-08-04T19:57:49.837Z,101304.28
2018-08-04T20:00:18.373Z,101311.94
2018-08-04T20:02:46.760Z,101303.12
2018-08-04T20:05:15.174Z,101300.91
2018-08-04T20:07:43.601Z,101315.22
2018-08-04T20:10:12.016Z,101308.39
2018-08-04T20:12:57.184Z,101080.67
2018-08-04T20:15:25.686Z,101319.28
2018-08-04T20:17:54.083Z,101318.51
2018-08-04T20:20:22.621Z,101324.83
2018-08-04T20:22:51.036Z,101323.52
2018-08-04T20:25:19.457Z,101327.25
2018-08-04T20:27:47.906Z,101321.43
2018-08-04T20:30:16.389Z,101320.19
2018-08-04T20:32:44.845Z,101333.31
2018-08-04T20:35:13.400Z,101334.41
2018-08-04T20:37:41.835Z,101326.33
2018-08-04T20:40:10.267Z,101335.45
2018-08-04T20:42:38.720Z,101332.13
2018-08-04T20:45:07.473Z,101334.54
2018-08-04T20:47:35.984Z,101335.75
2018-08-04T20:50:04.786Z,101338.03
2018-08-04T20:52:33.387Z,101339.39
2018-08-04T20:55:01.947Z,101332.31
2018-08-04T20:57:30.390Z,101334.83
2018-08-04T20:59:59.928Z,101341.97
2018-08-04T21:02:28.349Z,101338.61
2018-08-04T21:04:56.752Z,101342.91
2018-08-04T21:07:25.165Z,101341.10
2018-08-04T21:09:53.631Z,101340.81
2018-08-04T21:12:22.040Z,101350.77
2018-08-04T21:14:50.464Z,101341.73
2018-08-04T21:17:18.872Z,101341.06
2018-08-04T21:19:47.281Z,101339.75
2018-08-04T21:22:16.536Z,101340.61
2018-08-04T21:24:44.919Z,101345.30
2018-08-04T21:27:13.296Z,101356.80
2018-08-04T21:29:41.684Z,101352.03
2018-08-04T21:32:10.178Z,101358.96
2018-08-04T21:34:38.627Z,101355.03
2018-08-04T21:37:07.072Z,101357.40
2018-08-04T21:39:35.479Z,101353.72
2018-08-04T21:42:03.924Z,101358.26
2018-08-04T21:44:32.453Z,101365.27
2018-08-04T21:47:00.808Z,101368.73
2018-08-04T21:49:29.266Z,101365.78
2018-08-04T21:51:57.667Z,101365.84
2018-08-04T21:54:26.072Z,101373.58
2018-08-04T21:56:54.533Z,101378.48
2018-08-04T21:59:22.940Z,101383.15
2018-08-04T22:01:55.654Z,101380.25
2018-08-04T22:04:24.267Z,101377.36
2018-08-04T22:08:04.872Z,101378.34
2018-08-04T22:10:33.335Z,101379.00
2018-08-04T22:13:01.840Z,101377.69
2018-08-04T22:15:30.224Z,101374.09
2018-08-04T22:17:58.767Z,101384.44
2018-08-04T22:20:27.748Z,101382.84
2018-08-04T22:22:56.238Z,101384.30
2018-08-04T22:25:25.750Z,101381.53
2018-08-04T22:27:54.495Z,101389.91
2018-08-04T22:30:23.448Z,101378.44
2018-08-04T22:32:52.085Z,101390.14
2018-08-04T22:35:20.753Z,101386.27
2018-08-04T22:37:49.263Z,101386.33
2018-08-04T22:40:18.558Z,101386.50
2018-08-04T22:42:47.040Z,101390.66
2018-08-04T22:46:10.867Z,101396.91
2018-08-04T22:48:39.662Z,101396.19
2018-08-04T22:51:08.060Z,101391.83
2018-08-04T22:53:36.701Z,101386.98
2018-08-04T22:56:05.266Z,101386.52
2018-08-04T22:58:33.776Z,101385.28
2018-08-04T23:01:02.226Z,101386.81
2018-08-04T23:03:30.730Z,101393.02
2018-08-04T23:05:59.173Z,101396.09
2018-08-04T23:08:28.508Z,101389.10
2018-08-04T23:10:56.920Z,101389.20
2018-08-04T23:13:25.342Z,101394.56
2018-08-04T23:15:54.322Z,101397.50
2018-08-04T23:18:22.790Z,101395.58
2018-08-04T23:20:51.231Z,101408.71
2018-08-04T23:23:19.629Z,101408.59
2018-08-04T23:25:48.051Z,101414.49
2018-08-04T23:28:16.447Z,101411.27
2018-08-04T23:30:44.840Z,101416.13
2018-08-04T23:33:13.531Z,101411.25
2018-08-04T23:35:41.924Z,101415.55
2018-08-04T23:38:10.368Z,101415.91
2018-08-04T23:40:38.971Z,101417.64
2018-08-04T23:43:07.403Z,101420.13
2018-08-04T23:45:36.573Z,101426.80
2018-08-04T23:48:05.023Z,101426.54
2018-08-04T23:50:33.399Z,101433.14
2018-08-04T23:53:02.266Z,101429.77
2018-08-04T23:55:30.708Z,101436.70
2018-08-04T23:57:59.122Z,101434.56
